San Lorenzo, CA

8:56 PM PDT on September 19, 2014 (GMT -0700)
Hayward Executive | Change Station
CLOSE
Current Station
Airport
Location: Hayward,
Elevation: 46 ft
Nearby Weather Stations

Elev 46 ft 37.66 °N, 122.12 °W | Updated 1 hour ago

Clear
Clear
68 °F
Feels Like 68 °F
N
6
Wind Variable Wind from NW

Today
High -- | Low -- °F
--% Chance of Precip.
Yesterday
High -- | Low -- °F
Precip. -- in
6:53 AM 7:09 PM
Waning Crescent, 15% visible
Pressure 29.89 in
Visibility 10.0 miles
Clouds Clear
Dew Point 65 °F
Humidity 90%
Rainfall 0.00 in
Snow Depth 0 in , 0 in , 0 in
UV 0 out of 12
Pollen 4.70 out of 12
PM2.5 Good
Flu Activity Not available.
METAR KHWD 200254Z AUTO 32005KT 10SM CLR 20/18 A2987 RMK AO2 SLP122 T02000183 53004

More Conditions Fewer Conditions

Pressure 29.89 in
Visibility 10.0 miles
Clouds Clear
Dew Point 65 °F
Humidity 90%
Rainfall 0.00 in
Snow Depth 0 in , 0 in , 0 in
UV 0 out of 12
Pollen 4.70 out of 12
PM2.5 Good
Flu Activity Not available.
METAR KHWD 200254Z AUTO 32005KT 10SM CLR 20/18 A2987 RMK AO2 SLP122 T02000183 53004

More Conditions Fewer Conditions

10-Day Weather Forecast

Almanac

Astronomy

Sep. 19, 2014 Rise Set
Actual Time 6:53 AM PDT 7:09 PM PDT
Civil Twilight 6:27 AM PDT 7:36 PM PDT
Nautical Twilight 5:56 AM PDT 8:06 PM PDT
Astronomical Twilight 5:25 AM PDT 8:37 PM PDT
Moon 2:47 AM PDT (9/19) 4:38 PM PDT (9/19)
Length of Visible Light 13h 08m
Length of Day
12h 16m
Tomorrow will be 2m 25s shorter.
Waning Crescent, 15% of the Moon is Illuminated
Today
Waning Crescent
Sep 24
New
Oct 1
First Quarter
Oct 8
Full
Oct 15
Last Quarter

Today's Extremes

State Highs State Lows

Community

WunderPhotos

Upload Photos

1,754,777 photos uploaded!

WunderBlogs® & News

Nearby

Air Quality

  Air Quality AQ Index Pollutant
Yesterday Good
OZONE
Yesterday Good
PM2.5
Current Good
PM2.5
Friday Good
OZONE
Saturday Moderate
PM2.5
Sunday Moderate
PM2.5
Monday Good
PM2.5
Tuesday Good
PM2.5
Wednesday Good
OZONE

Snow Depth

Station Depth Elevation
Adin Mountain 0 in 6200 ft
Leavitt Meadows 0 in 7200 ft
CSS Lab 0 in 6900 ft
Blue Lakes 0 in 8000 ft
Leavitt Lake 0 in 9400 ft

Earthquake Activity

City Distance Mag. Time & Date
Livermore, California 21 miles 2.6 3:37 AM PDT
2014-09-19
The Geysers, California 82 miles 2.5 11:29 PM PDT
2014-09-17
Cobb, California 84 miles 2.7 1:23 PM PDT
2014-09-16
Minimum magnitude displayed is 2.5.

Coastal Water Temperatures

Place Temperature
No Stations Reporting

Nearby Weather Stations